This is the latest recevied weather packets stored in our database for station/object HS2LXA-WX. If no packets are shown the sender has not sent any weather packets the latest 1 day(s).
| Time | Temp. | Humidity | Pressure | Rain* | Wind** | Luminosity | Snow |
|---|---|---|---|---|---|---|---|
| 1778075872 | 32.78° C | 71% | 1013.1 hPa | 0 mm | - | - | - |
| 1778075272 | 33.33° C | 71% | 1013.2 hPa | 0 mm | - | - | - |
| 1778074672 | 33.33° C | 70% | 1013.1 hPa | 0 mm | - | - | - |
| 1778074068 | 33.33° C | 71% | 1013.2 hPa | 0 mm | - | - | - |
| 1778067366 | 32.22° C | 72% | 1013.1 hPa | 0 mm | - | - | - |
| 1778065651 | 32.78° C | 68% | 1013.1 hPa | 0 mm | - | - | - |
| 1778065050 | 32.78° C | 69% | 1013.2 hPa | 0 mm | - | - | - |
| 1778063183 | 33.33° C | 67% | 1013.2 hPa | 0 mm | - | - | - |
| 1778060408 | 33.89° C | 67% | 1013.1 hPa | 0 mm | - | - | - |
| 1778058380 | 33.89° C | 68% | 1013.2 hPa | 0 mm | - | - | - |
| 1778056831 | 33.89° C | 70% | 1013.1 hPa | 0 mm | - | - | - |
| 1778053744 | 33.89° C | 67% | 1013.2 hPa | 0 mm | - | - | - |
| 1778053144 | 33.89° C | 68% | 1013.1 hPa | 0 mm | - | - | - |
| 1778052424 | 33.89° C | 69% | 1013.1 hPa | 0 mm | - | - | - |
| 1778051225 | 33.89° C | 69% | 1013.1 hPa | 0 mm | - | - | - |
| 1778049268 | 33.33° C | 75% | 1013.2 hPa | 0 mm | - | - | - |
| 1778048225 | 33.33° C | 79% | 1013.1 hPa | 0 mm | - | - | - |
| 1778044932 | 32.78° C | 80% | 1013.1 hPa | 0 mm | - | - | - |
| 1778043131 | 32.78° C | 79% | 1013.1 hPa | 0 mm | - | - | - |
| 1778042530 | 32.78° C | 78% | 1013.2 hPa | 0 mm | - | - | - |
| 1778041928 | 32.78° C | 78% | 1013.2 hPa | 0 mm | - | - | - |
| 1778040933 | 32.78° C | 77% | 1013.1 hPa | 0 mm | - | - | - |
| 1778040333 | 33.33° C | 76% | 1013.1 hPa | 0 mm | - | - | - |
| 1778039728 | 33.33° C | 76% | 1013.1 hPa | 0 mm | - | - | - |
| 1778038143 | 33.33° C | 76% | 1013.1 hPa | 0 mm | - | - | - |
* Rain latest hour (hover to see other rain measurements)
** Current wind speed in m/s (hover to see current wind gust speed)